Divot, Texas
Current Conditions -  °F | °C
As of 12:53 AM on Thursday 18 Dec 2014 (Local Time) from KCOT Reporting Station
Overcast Overcast  
Wind Chill: 58°   Ceiling: 2100
Heat Index: 58°   Visibility: 10mi
Dew Point: 53°   Wind: 3mph
Humidity: 84%   Direction: 350°N
Pressure: 30.06"   Gusts: NA
Location:  28.7236°N, 99.2694°W
Report Text: KCOT 180653Z AUTO 35003KT 10SM OVC021 14/12 A3006 RMK AO2 SLP174 T01440117
Loading
Personal Weather Stations






























Interactive Weather Map New forecast layout! Learn more

10-Day Weather Forecast

Advertisements
Track Severe Weather on mobile